createdAt,value
2023-03-29T04:27:08.954Z,101042.03
2023-03-29T04:31:13.522Z,101041.34
2023-03-29T04:35:18.246Z,101040.13
2023-03-29T04:39:22.135Z,101036.47
2023-03-29T04:43:25.691Z,101038.06
2023-03-29T04:47:30.109Z,101041.88
2023-03-29T04:51:33.607Z,101038.59
2023-03-29T04:55:37.373Z,101031.94
2023-03-29T04:59:40.295Z,101043.34
2023-03-29T05:03:43.909Z,101046.06
2023-03-29T05:07:47.338Z,101048.00
2023-03-29T05:11:50.869Z,101051.34
2023-03-29T05:15:54.004Z,101053.00
2023-03-29T05:19:57.144Z,101050.22
2023-03-29T05:24:00.411Z,101061.13
2023-03-29T05:28:07.754Z,101061.03
2023-03-29T05:32:18.951Z,101059.50
2023-03-29T05:36:31.281Z,101057.69
2023-03-29T05:40:35.999Z,101059.41
2023-03-29T05:44:40.958Z,101055.00
2023-03-29T05:48:44.396Z,101066.31
2023-03-29T05:52:53.438Z,101065.72
2023-03-29T05:56:56.885Z,101063.81
2023-03-29T06:01:05.195Z,101075.62
2023-03-29T06:05:22.282Z,101076.34
2023-03-29T06:09:27.271Z,101076.75
2023-03-29T06:13:52.808Z,101076.00
2023-03-29T06:18:05.540Z,101076.78
2023-03-29T06:22:14.749Z,101084.22
2023-03-29T06:26:33.059Z,101085.78
2023-03-29T06:30:38.573Z,101073.87
2023-03-29T06:34:49.335Z,101085.50
2023-03-29T06:39:42.447Z,101096.53
2023-03-29T06:43:56.489Z,101101.50
2023-03-29T06:48:00.563Z,101098.88
2023-03-29T06:52:26.443Z,101092.25
2023-03-29T06:57:05.039Z,101095.19
2023-03-29T07:01:10.279Z,101087.72
2023-03-29T07:05:14.590Z,101100.28
2023-03-29T07:09:20.878Z,101097.56
2023-03-29T07:13:31.999Z,101103.47
2023-03-29T07:17:44.586Z,101099.50
2023-03-29T07:21:56.278Z,101115.53
2023-03-29T07:26:28.848Z,101114.00
2023-03-29T07:30:33.998Z,101115.03
2023-03-29T07:34:53.257Z,101117.25
2023-03-29T07:39:16.700Z,101123.06
2023-03-29T07:43:26.070Z,101120.72
2023-03-29T07:47:33.427Z,101124.25
2023-03-29T07:51:44.799Z,101129.72
2023-03-29T07:55:57.987Z,101141.81
2023-03-29T08:00:52.802Z,101146.03
2023-03-29T08:09:25.580Z,101139.69
2023-03-29T08:13:35.666Z,101128.25
2023-03-29T08:17:49.295Z,101129.84
2023-03-29T08:22:15.999Z,101131.16
2023-03-29T08:26:29.361Z,101129.41
2023-03-29T08:30:36.742Z,101130.06
2023-03-29T08:39:16.245Z,101124.50
2023-03-29T08:43:50.629Z,101120.31
2023-03-29T08:48:08.723Z,101117.63
2023-03-29T08:52:38.729Z,101112.44
2023-03-29T08:56:49.199Z,101104.19
2023-03-29T09:01:04.560Z,101107.38
2023-03-29T09:05:47.131Z,101110.09
2023-03-29T09:09:56.139Z,101100.88
2023-03-29T09:18:57.782Z,101101.22
2023-03-29T09:23:26.899Z,101083.56
2023-03-29T09:27:33.529Z,101089.62
2023-03-29T09:31:43.513Z,101068.84
2023-03-29T09:36:13.613Z,101080.97
2023-03-29T09:41:24.610Z,101080.59
2023-03-29T09:45:33.613Z,101073.44
2023-03-29T09:49:53.351Z,101068.56
2023-03-29T09:54:13.582Z,101064.75
2023-03-29T09:58:33.168Z,101054.72
2023-03-29T10:02:58.253Z,101059.97
2023-03-29T10:07:36.296Z,101047.31
2023-03-29T10:12:10.989Z,101047.25
2023-03-29T10:16:44.804Z,101038.00
2023-03-29T10:21:06.072Z,101034.75
2023-03-29T10:25:16.997Z,101021.34
2023-03-29T10:29:28.610Z,101021.28
2023-03-29T10:33:35.065Z,101018.41
2023-03-29T10:38:06.661Z,101013.03
2023-03-29T10:42:23.073Z,101003.28
2023-03-29T10:47:20.459Z,101005.63
2023-03-29T10:51:34.721Z,101005.56
2023-03-29T10:56:36.046Z,100991.97
2023-03-29T11:01:11.672Z,100986.13
2023-03-29T11:05:18.740Z,100982.06
2023-03-29T11:09:47.416Z,100990.63
2023-03-29T11:14:09.554Z,100982.37
2023-03-29T11:18:57.249Z,100970.28
2023-03-29T11:23:34.116Z,100977.69
2023-03-29T11:28:05.231Z,100969.44
2023-03-29T11:32:48.895Z,100968.66
2023-03-29T11:37:08.895Z,100964.28
2023-03-29T11:41:58.623Z,100957.47
2023-03-29T11:50:58.788Z,100939.19
2023-03-29T11:55:29.160Z,100945.06
2023-03-29T11:59:42.435Z,100944.03
2023-03-29T12:04:45.079Z,100935.41
2023-03-29T12:09:10.331Z,100923.81
2023-03-29T12:13:46.097Z,100932.72
2023-03-29T12:18:17.336Z,100921.13
2023-03-29T12:22:20.978Z,100906.97
2023-03-29T12:26:53.204Z,100902.84
2023-03-29T12:31:07.767Z,100911.19
2023-03-29T12:35:33.916Z,100891.25
2023-03-29T12:39:38.106Z,100894.06
2023-03-29T12:44:04.851Z,100883.75
2023-03-29T12:48:15.044Z,100894.16
2023-03-29T12:52:34.549Z,100890.00
2023-03-29T12:56:42.861Z,100875.03
2023-03-29T13:00:48.087Z,100880.97
2023-03-29T13:04:52.989Z,100884.50
2023-03-29T13:09:20.390Z,100879.12
2023-03-29T13:13:37.721Z,100877.97
2023-03-29T13:18:06.572Z,100876.94
2023-03-29T13:22:56.801Z,100877.31
2023-03-29T13:27:14.897Z,100879.66
2023-03-29T13:31:29.730Z,100887.22
2023-03-29T13:35:51.836Z,100866.31
2023-03-29T13:39:55.739Z,100854.25
2023-03-29T13:43:58.868Z,100867.41
2023-03-29T13:48:30.924Z,100858.38
2023-03-29T13:52:44.444Z,100840.50
2023-03-29T13:57:16.154Z,100828.69
2023-03-29T14:01:57.596Z,100829.34
2023-03-29T14:06:02.870Z,100831.22
2023-03-29T14:10:06.568Z,100822.78
2023-03-29T14:14:10.693Z,100829.44
2023-03-29T14:18:17.109Z,100817.41
2023-03-29T14:22:21.615Z,100819.75
2023-03-29T14:26:25.644Z,100819.06
2023-03-29T14:30:29.491Z,100810.97
2023-03-29T14:34:33.174Z,100813.59
2023-03-29T14:38:37.075Z,100811.06
2023-03-29T14:42:39.878Z,100798.97
2023-03-29T14:46:45.242Z,100796.94
2023-03-29T14:50:48.841Z,100791.25
2023-03-29T14:54:56.772Z,100787.97
